createdAt,value
2018-04-12T00:00:13.647Z,14.2
2018-04-12T00:00:39.799Z,14.15
2018-04-12T00:01:05.981Z,14.12
2018-04-12T00:01:32.161Z,14.25
2018-04-12T00:01:58.315Z,14.2
2018-04-12T00:02:24.469Z,14.15
2018-04-12T00:02:50.625Z,14.15
2018-04-12T00:03:16.772Z,14.17
2018-04-12T00:03:42.925Z,14.1
2018-04-12T00:04:09.079Z,14.17
2018-04-12T00:04:35.233Z,14.12
2018-04-12T00:05:01.409Z,14.15
2018-04-12T00:05:27.562Z,14.1
2018-04-12T00:05:53.715Z,14
2018-04-12T00:06:19.896Z,14.07
2018-04-12T00:06:46.057Z,13.95
2018-04-12T00:07:12.232Z,13.96
2018-04-12T00:07:38.383Z,14
2018-04-12T00:08:04.563Z,13.96
2018-04-12T00:08:30.714Z,14.03
2018-04-12T00:08:56.871Z,13.96
2018-04-12T00:09:23.048Z,14.04
2018-04-12T00:09:49.230Z,13.92
2018-04-12T00:10:15.385Z,13.99
2018-04-12T00:10:41.538Z,13.92
2018-04-12T00:11:07.691Z,13.97
2018-04-12T00:11:33.844Z,13.99
2018-04-12T00:12:00.000Z,14
2018-04-12T00:12:26.176Z,14.03
2018-04-12T00:12:52.328Z,13.97
2018-04-12T00:13:18.484Z,13.99
2018-04-12T00:13:44.636Z,13.99
2018-04-12T00:14:10.789Z,14
2018-04-12T00:14:36.940Z,13.96
2018-04-12T00:15:03.091Z,13.99
2018-04-12T00:15:29.242Z,13.93
2018-04-12T00:15:55.397Z,13.99
2018-04-12T00:16:22.150Z,13.97
2018-04-12T00:16:48.331Z,13.95
2018-04-12T00:17:14.485Z,14
2018-04-12T00:17:40.639Z,13.99
2018-04-12T00:18:06.790Z,14.04
2018-04-12T00:18:32.944Z,13.95
2018-04-12T00:18:59.121Z,13.97
2018-04-12T00:19:25.313Z,14.04
2018-04-12T00:19:51.426Z,13.99
2018-04-12T00:20:17.583Z,14.04
2018-04-12T00:20:43.736Z,13.93
2018-04-12T00:21:09.894Z,13.95
2018-04-12T00:21:36.072Z,14
2018-04-12T00:22:02.225Z,13.97
2018-04-12T00:22:28.403Z,13.83
2018-04-12T00:22:54.557Z,13.89
2018-04-12T00:23:20.734Z,13.93
2018-04-12T00:23:46.915Z,13.87
2018-04-12T00:24:13.078Z,13.89
2018-04-12T00:24:39.224Z,13.99
2018-04-12T00:25:05.403Z,13.83
2018-04-12T00:25:31.565Z,13.83
2018-04-12T00:25:57.709Z,13.87
2018-04-12T00:26:23.872Z,13.86
2018-04-12T00:26:50.072Z,13.9
2018-04-12T00:27:16.256Z,13.89
2018-04-12T00:27:42.413Z,13.9
2018-04-12T00:28:08.586Z,13.83
2018-04-12T00:28:34.737Z,13.83
2018-04-12T00:29:00.888Z,13.78
2018-04-12T00:29:27.118Z,13.74
2018-04-12T00:29:53.296Z,13.77
2018-04-12T00:30:19.475Z,13.78
2018-04-12T00:30:45.630Z,13.79
2018-04-12T00:31:11.811Z,13.74
2018-04-12T00:31:37.961Z,13.75
2018-04-12T00:32:04.143Z,13.77
2018-04-12T00:32:30.295Z,13.77
2018-04-12T00:32:56.448Z,13.68
2018-04-12T00:33:22.598Z,13.81
2018-04-12T00:33:48.751Z,13.72
2018-04-12T00:34:14.933Z,13.75
2018-04-12T00:34:41.085Z,13.68
2018-04-12T00:35:07.264Z,13.59
2018-04-12T00:35:33.445Z,13.71
2018-04-12T00:35:59.606Z,13.62
2018-04-12T00:36:25.773Z,13.7
2018-04-12T00:36:51.950Z,13.63
2018-04-12T00:37:18.101Z,13.62
2018-04-12T00:37:44.253Z,13.59
2018-04-12T00:38:10.406Z,13.57
2018-04-12T00:38:36.585Z,13.59
2018-04-12T00:39:02.737Z,13.49
2018-04-12T00:39:28.888Z,13.6
2018-04-12T00:39:55.040Z,13.47
2018-04-12T00:40:21.190Z,13.62
2018-04-12T00:40:47.368Z,13.57
2018-04-12T00:41:13.520Z,13.52
2018-04-12T00:41:39.674Z,13.49
2018-04-12T00:42:05.832Z,13.6
2018-04-12T00:42:32.035Z,13.54
2018-04-12T00:42:58.215Z,13.6
2018-04-12T00:43:24.395Z,13.63
2018-04-12T00:43:50.550Z,13.52
2018-04-12T00:44:16.729Z,13.56
2018-04-12T00:44:42.881Z,13.57
2018-04-12T00:45:09.038Z,13.54
2018-04-12T00:45:35.215Z,13.6
2018-04-12T00:46:01.366Z,13.57
2018-04-12T00:46:27.517Z,13.6
2018-04-12T00:46:53.673Z,13.6
2018-04-12T00:47:19.862Z,13.53
2018-04-12T00:47:46.007Z,13.57
2018-04-12T00:48:12.162Z,13.57
2018-04-12T00:48:38.343Z,13.57
2018-04-12T00:49:04.497Z,13.52
2018-04-12T00:49:30.679Z,13.53
2018-04-12T00:49:56.833Z,13.52
2018-04-12T00:50:22.988Z,13.53
2018-04-12T00:50:49.141Z,13.53
2018-04-12T00:51:15.295Z,13.53
2018-04-12T00:51:41.499Z,13.5
2018-04-12T00:52:07.677Z,13.49
2018-04-12T00:52:33.830Z,13.52
2018-04-12T00:53:00.011Z,13.42
2018-04-12T00:53:26.165Z,13.5
2018-04-12T00:53:52.344Z,13.5
2018-04-12T00:54:18.493Z,13.53
2018-04-12T00:54:44.648Z,13.53
2018-04-12T00:55:10.798Z,13.5
2018-04-12T00:55:36.950Z,13.5
2018-04-12T00:56:03.105Z,13.41
2018-04-12T00:56:29.262Z,13.47
2018-04-12T00:56:55.437Z,13.39
2018-04-12T00:57:21.588Z,13.5
2018-04-12T00:57:47.739Z,13.37
2018-04-12T00:58:13.891Z,13.47
2018-04-12T00:58:40.074Z,13.41
2018-04-12T00:59:06.224Z,13.5
2018-04-12T00:59:32.385Z,13.42
2018-04-12T00:59:58.557Z,13.53
2018-04-12T01:00:24.710Z,13.49
2018-04-12T01:00:50.861Z,13.47
2018-04-12T01:01:17.014Z,13.49
2018-04-12T01:01:43.166Z,13.49
2018-04-12T01:02:09.345Z,13.42
2018-04-12T01:02:35.540Z,13.47
2018-04-12T01:03:01.772Z,13.38
2018-04-12T01:03:28.028Z,13.46
2018-04-12T01:03:54.191Z,13.42
2018-04-12T01:04:20.345Z,13.5
2018-04-12T01:04:46.496Z,13.54
2018-04-12T01:05:12.930Z,13.53
2018-04-12T01:05:39.088Z,13.44
2018-04-12T01:06:05.264Z,13.41
2018-04-12T01:06:31.416Z,13.42
2018-04-12T01:06:57.567Z,13.42
2018-04-12T01:07:23.724Z,13.47
2018-04-12T01:07:49.884Z,13.41
2018-04-12T01:08:16.031Z,13.44
2018-04-12T01:08:42.183Z,13.39
2018-04-12T01:09:08.334Z,13.42
2018-04-12T01:09:34.485Z,13.49
2018-04-12T01:10:00.664Z,13.41
2018-04-12T01:10:26.846Z,13.44
2018-04-12T01:10:53.024Z,13.47
2018-04-12T01:11:19.209Z,13.41
2018-04-12T01:11:45.386Z,13.54
2018-04-12T01:12:11.539Z,13.52
2018-04-12T01:12:37.694Z,13.53
2018-04-12T01:13:03.877Z,13.54
2018-04-12T01:13:30.056Z,13.54
2018-04-12T01:13:56.262Z,13.42
2018-04-12T01:14:22.441Z,13.47
2018-04-12T01:14:48.629Z,13.44
2018-04-12T01:15:14.812Z,13.42
2018-04-12T01:15:40.989Z,13.47
2018-04-12T01:16:07.195Z,13.49
2018-04-12T01:16:33.339Z,13.46
2018-04-12T01:16:59.510Z,13.39
2018-04-12T01:17:25.643Z,13.52
2018-04-12T01:17:51.796Z,13.5
2018-04-12T01:18:17.980Z,13.41
2018-04-12T01:18:44.131Z,13.38
2018-04-12T01:19:10.313Z,13.47
2018-04-12T01:19:36.465Z,13.41
2018-04-12T01:20:02.623Z,13.38
2018-04-12T01:20:28.771Z,13.41
2018-04-12T01:20:54.937Z,13.44
2018-04-12T01:21:21.110Z,13.5
2018-04-12T01:21:47.262Z,13.47
2018-04-12T01:22:13.419Z,13.53
2018-04-12T01:22:39.569Z,13.46
2018-04-12T01:23:05.722Z,13.53
2018-04-12T01:23:31.874Z,13.44
2018-04-12T01:23:58.026Z,13.57
2018-04-12T01:24:24.178Z,13.47
2018-04-12T01:24:50.330Z,13.52
2018-04-12T01:25:16.535Z,13.49
2018-04-12T01:25:42.688Z,13.57
2018-04-12T01:26:08.847Z,13.5
2018-04-12T01:26:34.996Z,13.54
2018-04-12T01:27:01.181Z,13.49
2018-04-12T01:27:27.333Z,13.5
2018-04-12T01:27:53.488Z,13.5
2018-04-12T01:28:19.671Z,13.56
2018-04-12T01:28:45.827Z,13.52
2018-04-12T01:29:11.977Z,13.5
2018-04-12T01:29:38.128Z,13.54
2018-04-12T01:30:04.284Z,13.5
2018-04-12T01:30:30.436Z,13.54
2018-04-12T01:30:56.590Z,13.54
2018-04-12T01:31:22.797Z,13.57
2018-04-12T01:31:48.950Z,13.53
2018-04-12T01:32:15.103Z,13.47
2018-04-12T01:32:41.255Z,13.5
2018-04-12T01:33:07.411Z,13.5
2018-04-12T01:33:33.590Z,13.53
2018-04-12T01:33:59.743Z,13.52
2018-04-12T01:34:25.899Z,13.5
2018-04-12T01:34:52.078Z,13.53
2018-04-12T01:35:18.252Z,13.52
2018-04-12T01:35:44.406Z,13.54
2018-04-12T01:36:10.558Z,13.42
2018-04-12T01:36:36.737Z,13.54
2018-04-12T01:37:02.890Z,13.5
2018-04-12T01:37:29.041Z,13.47
2018-04-12T01:37:55.191Z,13.5
2018-04-12T01:38:21.349Z,13.42
2018-04-12T01:38:47.526Z,13.44
2018-04-12T01:39:13.680Z,13.5
2018-04-12T01:39:39.835Z,13.39
2018-04-12T01:40:06.015Z,13.47
2018-04-12T01:40:32.195Z,13.39
2018-04-12T01:40:58.346Z,13.47
2018-04-12T01:41:24.502Z,13.42
2018-04-12T01:41:50.656Z,13.46
2018-04-12T01:42:16.811Z,13.38
2018-04-12T01:42:42.964Z,13.47
2018-04-12T01:43:09.142Z,13.49
2018-04-12T01:43:35.298Z,13.38
2018-04-12T01:44:01.446Z,13.42
2018-04-12T01:44:27.598Z,13.42
2018-04-12T01:44:53.778Z,13.41
2018-04-12T01:45:19.982Z,13.28
2018-04-12T01:45:46.135Z,13.27
2018-04-12T01:46:12.317Z,13.25
2018-04-12T01:46:38.496Z,13.25
2018-04-12T01:47:04.649Z,13.3
2018-04-12T01:47:30.803Z,13.35
2018-04-12T01:47:56.953Z,13.39
2018-04-12T01:48:23.108Z,13.41
2018-04-12T01:48:49.259Z,13.37
2018-04-12T01:49:15.436Z,13.33
2018-04-12T01:49:41.587Z,13.22
2018-04-12T01:50:07.769Z,13.22
2018-04-12T01:50:33.953Z,13.27
2018-04-12T01:51:00.132Z,13.22
2018-04-12T01:51:26.291Z,13.15
2018-04-12T01:51:52.468Z,13.13
2018-04-12T01:52:18.644Z,13.18
2018-04-12T01:52:44.797Z,13.23
2018-04-12T01:53:11.003Z,13.18
2018-04-12T01:53:37.148Z,13.16
2018-04-12T01:54:03.304Z,13.16
2018-04-12T01:54:29.461Z,13.03
2018-04-12T01:54:55.635Z,13.11
2018-04-12T01:55:21.788Z,13.08
2018-04-12T01:55:47.941Z,13.09
2018-04-12T01:56:14.121Z,13.18
2018-04-12T01:56:40.275Z,13.2
2018-04-12T01:57:06.454Z,13.15
2018-04-12T01:57:32.607Z,13.12
2018-04-12T01:57:58.758Z,13.12
2018-04-12T01:58:24.911Z,13.11
2018-04-12T01:58:51.068Z,13
2018-04-12T01:59:17.221Z,13.04
2018-04-12T01:59:43.369Z,12.94
2018-04-12T02:00:09.521Z,12.95
2018-04-12T02:00:35.672Z,12.94
2018-04-12T02:01:01.823Z,12.95
2018-04-12T02:01:27.976Z,12.91
2018-04-12T02:01:54.152Z,12.91
2018-04-12T02:02:20.304Z,12.97
2018-04-12T02:02:46.484Z,12.86
2018-04-12T02:03:12.665Z,12.97
2018-04-12T02:03:38.843Z,12.94
2018-04-12T02:04:05.046Z,12.97
2018-04-12T02:04:31.197Z,12.95
2018-04-12T02:04:57.349Z,13
2018-04-12T02:05:23.503Z,12.94
2018-04-12T02:05:49.680Z,12.93
2018-04-12T02:06:15.834Z,12.93
2018-04-12T02:06:42.013Z,12.94
2018-04-12T02:07:08.167Z,12.91
2018-04-12T02:07:34.318Z,12.91
2018-04-12T02:08:00.470Z,12.91
2018-04-12T02:08:26.626Z,12.9
2018-04-12T02:08:52.775Z,12.97
2018-04-12T02:09:18.931Z,12.87
2018-04-12T02:09:45.113Z,12.95
2018-04-12T02:10:11.266Z,12.94
2018-04-12T02:10:37.417Z,12.98
2018-04-12T02:11:03.571Z,12.98
2018-04-12T02:11:29.722Z,13.03
2018-04-12T02:11:55.878Z,12.98
2018-04-12T02:12:22.032Z,13.05
2018-04-12T02:12:48.185Z,13.13
2018-04-12T02:13:14.337Z,13.13
2018-04-12T02:13:40.489Z,13.18
2018-04-12T02:14:06.696Z,13.13
2018-04-12T02:14:32.850Z,13.18
2018-04-12T02:14:59.005Z,13.23
2018-04-12T02:15:25.188Z,13.09
2018-04-12T02:15:51.338Z,13.12
2018-04-12T02:16:17.493Z,13.18
2018-04-12T02:16:43.679Z,13.16
2018-04-12T02:17:09.856Z,13.12
2018-04-12T02:17:36.008Z,13.08
2018-04-12T02:18:02.164Z,13.13
2018-04-12T02:18:28.367Z,13.09
2018-04-12T02:18:54.518Z,13.01
2018-04-12T02:19:20.695Z,13.03
2018-04-12T02:19:46.874Z,13.12
2018-04-12T02:20:13.053Z,13.04
2018-04-12T02:20:39.233Z,13.12
2018-04-12T02:21:05.387Z,13.11
2018-04-12T02:21:31.537Z,13.11
2018-04-12T02:21:57.719Z,13.16
2018-04-12T02:22:23.872Z,13.11
2018-04-12T02:22:50.046Z,13.2
2018-04-12T02:23:16.173Z,13.11
2018-04-12T02:23:42.354Z,13.19
2018-04-12T02:24:08.515Z,13.19
2018-04-12T02:24:34.693Z,13.2
2018-04-12T02:25:00.865Z,13.16
2018-04-12T02:25:27.013Z,13.12
2018-04-12T02:25:53.165Z,13.16
2018-04-12T02:26:19.316Z,13.12
2018-04-12T02:26:45.469Z,13.11
2018-04-12T02:27:11.645Z,13.12
2018-04-12T02:27:37.825Z,13.08
2018-04-12T02:28:04.001Z,13.01
2018-04-12T02:28:30.154Z,13.01
2018-04-12T02:28:56.340Z,13.01
2018-04-12T02:29:22.475Z,13.01
2018-04-12T02:29:48.628Z,13.04
2018-04-12T02:30:14.812Z,13.08
2018-04-12T02:30:40.985Z,13.03
2018-04-12T02:31:07.194Z,13.03
2018-04-12T02:31:33.345Z,13.03
2018-04-12T02:31:59.527Z,12.98
2018-04-12T02:32:25.706Z,12.95
2018-04-12T02:32:51.859Z,12.97
2018-04-12T02:33:18.035Z,12.95
2018-04-12T02:33:44.217Z,12.94
2018-04-12T02:34:10.397Z,12.98
2018-04-12T02:34:36.550Z,12.98
2018-04-12T02:35:02.796Z,12.86
2018-04-12T02:35:28.902Z,12.86
2018-04-12T02:35:55.081Z,12.9
2018-04-12T02:36:21.230Z,12.85
2018-04-12T02:36:47.409Z,12.82
2018-04-12T02:37:13.614Z,12.78
2018-04-12T02:37:39.821Z,12.83
2018-04-12T02:38:05.999Z,12.82
2018-04-12T02:38:32.158Z,12.85
2018-04-12T02:38:58.354Z,12.86
2018-04-12T02:39:24.506Z,12.82
2018-04-12T02:39:50.685Z,12.78
2018-04-12T02:40:16.838Z,12.8
2018-04-12T02:40:43.045Z,12.91
2018-04-12T02:41:09.248Z,12.82
2018-04-12T02:41:35.402Z,12.79
2018-04-12T02:42:01.552Z,12.83
2018-04-12T02:42:27.733Z,12.82
2018-04-12T02:42:53.912Z,12.82
2018-04-12T02:43:20.090Z,12.87
2018-04-12T02:43:46.295Z,12.9
2018-04-12T02:44:12.447Z,12.85
2018-04-12T02:44:38.600Z,12.78
2018-04-12T02:45:04.794Z,12.83
2018-04-12T02:45:30.933Z,12.82
2018-04-12T02:45:57.136Z,12.75
2018-04-12T02:46:23.289Z,12.73
2018-04-12T02:46:49.441Z,12.75
2018-04-12T02:47:15.590Z,12.75
2018-04-12T02:47:41.797Z,12.62
2018-04-12T02:48:07.958Z,12.64
2018-04-12T02:48:34.156Z,12.64
2018-04-12T02:49:00.310Z,12.62
2018-04-12T02:49:26.462Z,12.62
2018-04-12T02:49:52.612Z,12.72
2018-04-12T02:50:18.769Z,12.73
2018-04-12T02:50:44.971Z,12.73
2018-04-12T02:51:11.090Z,12.7
2018-04-12T02:51:37.250Z,12.72
2018-04-12T02:52:03.414Z,12.73
2018-04-12T02:52:29.555Z,12.72
2018-04-12T02:52:55.723Z,12.73
2018-04-12T02:53:21.925Z,12.7
2018-04-12T02:53:48.096Z,12.7
2018-04-12T02:54:14.231Z,12.67
2018-04-12T02:54:40.417Z,12.68
2018-04-12T02:55:06.573Z,12.65
2018-04-12T02:55:32.733Z,12.6
2018-04-12T02:55:58.867Z,12.61
2018-04-12T02:56:25.083Z,12.57
2018-04-12T02:56:51.240Z,12.64
2018-04-12T02:57:17.369Z,12.62
2018-04-12T02:57:43.547Z,12.64
2018-04-12T02:58:09.688Z,12.62
2018-04-12T02:58:35.829Z,12.65
2018-04-12T02:59:01.990Z,12.75
2018-04-12T02:59:28.161Z,12.68
2018-04-12T02:59:54.292Z,12.61
2018-04-12T03:00:20.457Z,12.7
2018-04-12T03:00:46.596Z,12.65
2018-04-12T03:01:12.763Z,12.62
2018-04-12T03:01:38.905Z,12.68
2018-04-12T03:02:05.071Z,12.55
2018-04-12T03:02:31.244Z,12.62
2018-04-12T03:02:57.379Z,12.62
2018-04-12T03:03:23.520Z,12.64
2018-04-12T03:03:49.664Z,12.58
2018-04-12T03:04:15.804Z,12.64
2018-04-12T03:04:41.978Z,12.62
2018-04-12T03:05:08.103Z,12.55
2018-04-12T03:05:34.269Z,12.54
2018-04-12T03:06:00.405Z,12.57
2018-04-12T03:06:26.570Z,12.49
2018-04-12T03:06:52.708Z,12.45
2018-04-12T03:07:18.878Z,12.46
2018-04-12T03:07:45.083Z,12.47
2018-04-12T03:08:11.260Z,12.46
2018-04-12T03:08:37.403Z,12.45
2018-04-12T03:09:03.608Z,12.49
2018-04-12T03:09:29.775Z,12.49
2018-04-12T03:09:55.912Z,12.46
2018-04-12T03:10:22.051Z,12.45
2018-04-12T03:10:48.219Z,12.49
2018-04-12T03:11:14.403Z,12.5
2018-04-12T03:11:40.541Z,12.43
2018-04-12T03:12:06.684Z,12.5
2018-04-12T03:12:32.816Z,12.49
2018-04-12T03:12:58.976Z,12.45
2018-04-12T03:13:25.121Z,12.53
2018-04-12T03:13:51.263Z,12.49
2018-04-12T03:14:17.397Z,12.53
2018-04-12T03:14:43.537Z,12.49
2018-04-12T03:15:09.665Z,12.49
2018-04-12T03:15:35.810Z,12.47
2018-04-12T03:16:01.945Z,12.49
2018-04-12T03:16:28.112Z,12.49
2018-04-12T03:16:54.247Z,12.5
2018-04-12T03:17:20.393Z,12.47
2018-04-12T03:17:46.529Z,12.43
2018-04-12T03:18:12.696Z,12.53
2018-04-12T03:18:38.830Z,12.43
2018-04-12T03:19:04.973Z,12.49
2018-04-12T03:19:31.107Z,12.47
2018-04-12T03:19:57.247Z,12.54
2018-04-12T03:20:23.412Z,12.47
2018-04-12T03:20:49.553Z,12.53
2018-04-12T03:21:15.704Z,12.5
2018-04-12T03:21:41.833Z,12.53
2018-04-12T03:22:07.968Z,12.49
2018-04-12T03:22:34.107Z,12.45
2018-04-12T03:23:00.248Z,12.47
2018-04-12T03:23:26.383Z,12.49
2018-04-12T03:23:52.524Z,12.35
2018-04-12T03:24:18.689Z,12.4
2018-04-12T03:24:44.858Z,12.37
2018-04-12T03:25:10.996Z,12.36
2018-04-12T03:25:37.160Z,12.31
2018-04-12T03:26:03.328Z,12.2
2018-04-12T03:26:29.463Z,12.4
2018-04-12T03:26:55.602Z,12.21
2018-04-12T03:27:21.741Z,12.27
2018-04-12T03:27:47.906Z,12.22
2018-04-12T03:28:14.043Z,12.32
2018-04-12T03:28:40.180Z,12.27
2018-04-12T03:29:06.309Z,12.24
2018-04-12T03:29:32.455Z,12.21
2018-04-12T03:29:58.637Z,12.35
2018-04-12T03:30:24.795Z,12.32
2018-04-12T03:30:50.935Z,12.29
2018-04-12T03:31:17.098Z,12.31
2018-04-12T03:31:43.264Z,12.32
2018-04-12T03:32:09.431Z,12.32
2018-04-12T03:32:35.574Z,12.42
2018-04-12T03:33:01.729Z,12.29
2018-04-12T03:33:27.895Z,12.32
2018-04-12T03:33:54.057Z,12.25
2018-04-12T03:34:20.191Z,12.21
2018-04-12T03:34:46.332Z,12.24
2018-04-12T03:35:12.470Z,12.36
2018-04-12T03:35:38.620Z,12.32
2018-04-12T03:36:04.783Z,12.37
2018-04-12T03:36:30.921Z,12.31
2018-04-12T03:36:57.063Z,12.29
2018-04-12T03:37:23.222Z,12.27
2018-04-12T03:37:49.381Z,12.35
2018-04-12T03:38:15.514Z,12.36
2018-04-12T03:38:41.680Z,12.4
2018-04-12T03:39:07.819Z,12.37
2018-04-12T03:39:33.959Z,12.35
2018-04-12T03:40:00.095Z,12.42
2018-04-12T03:40:26.234Z,12.46
2018-04-12T03:40:52.393Z,12.42
2018-04-12T03:41:18.536Z,12.42
2018-04-12T03:41:44.680Z,12.39
2018-04-12T03:42:10.886Z,12.37
2018-04-12T03:42:36.957Z,12.32
2018-04-12T03:43:03.090Z,12.28
2018-04-12T03:43:29.248Z,12.31
2018-04-12T03:43:55.386Z,12.25
2018-04-12T03:44:21.532Z,12.36
2018-04-12T03:44:47.701Z,12.28
2018-04-12T03:45:13.830Z,12.32
2018-04-12T03:45:39.975Z,12.27
2018-04-12T03:46:06.112Z,12.25
2018-04-12T03:46:32.271Z,12.24
2018-04-12T03:46:58.429Z,12.31
2018-04-12T03:47:24.567Z,12.2
2018-04-12T03:47:50.708Z,12.24
2018-04-12T03:48:16.840Z,12.22
2018-04-12T03:48:43.029Z,12.18
2018-04-12T03:49:09.158Z,12.25
2018-04-12T03:49:35.360Z,12.2
2018-04-12T03:50:01.558Z,12.24
2018-04-12T03:50:27.744Z,12.28
2018-04-12T03:50:53.808Z,12.24
2018-04-12T03:51:19.961Z,12.32
2018-04-12T03:51:46.116Z,12.25
2018-04-12T03:52:12.278Z,12.18
2018-04-12T03:52:38.421Z,12.18
2018-04-12T03:53:04.580Z,12.21
2018-04-12T03:53:30.720Z,12.24
2018-04-12T03:53:56.887Z,12.24
2018-04-12T03:54:23.028Z,12.2
2018-04-12T03:54:49.211Z,12.2
2018-04-12T03:55:15.339Z,12.24
2018-04-12T03:55:41.473Z,12.25
2018-04-12T03:56:07.610Z,12.27
2018-04-12T03:56:33.768Z,12.31
2018-04-12T03:56:59.911Z,12.24
2018-04-12T03:57:26.048Z,12.24
2018-04-12T03:57:52.193Z,12.24
2018-04-12T03:58:18.320Z,12.18
2018-04-12T03:58:44.461Z,12.07
2018-04-12T03:59:10.598Z,12.07
2018-04-12T03:59:36.733Z,12.13
2018-04-12T04:00:02.875Z,12.07
2018-04-12T04:00:29.018Z,12.17
2018-04-12T04:00:55.178Z,12.15
2018-04-12T04:01:21.369Z,12.17
2018-04-12T04:01:47.565Z,12.02
2018-04-12T04:02:13.659Z,12.21
2018-04-12T04:02:39.825Z,12.07
2018-04-12T04:03:05.983Z,12.1
2018-04-12T04:03:32.151Z,12.12
2018-04-12T04:03:58.310Z,12.1
2018-04-12T04:04:24.448Z,12.06
2018-04-12T04:04:50.604Z,12.02
2018-04-12T04:05:16.746Z,12.1
2018-04-12T04:05:42.910Z,12.12
2018-04-12T04:06:09.051Z,12.09
2018-04-12T04:06:35.194Z,12.18
2018-04-12T04:07:01.364Z,12.24
2018-04-12T04:07:27.525Z,12.18
2018-04-12T04:07:53.663Z,12.2
2018-04-12T04:08:19.806Z,12.2
2018-04-12T04:08:45.939Z,12.24
2018-04-12T04:09:12.084Z,12.21
2018-04-12T04:09:38.223Z,12.31
2018-04-12T04:10:04.354Z,12.27
2018-04-12T04:10:30.523Z,12.22
2018-04-12T04:10:56.708Z,12.27
2018-04-12T04:11:22.846Z,12.22
2018-04-12T04:11:49.004Z,12.22
2018-04-12T04:12:15.149Z,12.28
2018-04-12T04:12:41.304Z,12.28
2018-04-12T04:13:07.472Z,12.27
2018-04-12T04:13:33.638Z,12.24
2018-04-12T04:13:59.772Z,12.18
2018-04-12T04:14:25.944Z,12.17
2018-04-12T04:14:52.078Z,12.22
2018-04-12T04:15:18.238Z,12.09
2018-04-12T04:15:44.380Z,12.21
2018-04-12T04:16:10.542Z,12.21
2018-04-12T04:16:36.673Z,12.18
2018-04-12T04:17:02.864Z,12.2
2018-04-12T04:17:29.005Z,12.2
2018-04-12T04:17:55.143Z,12.17
2018-04-12T04:18:21.275Z,12.25
2018-04-12T04:18:47.417Z,12.2
2018-04-12T04:19:13.551Z,12.18
2018-04-12T04:19:39.695Z,12.22
2018-04-12T04:20:05.823Z,12.21
2018-04-12T04:20:31.965Z,12.2
2018-04-12T04:20:58.100Z,12.2
2018-04-12T04:21:24.237Z,12.27
2018-04-12T04:21:50.375Z,12.22
2018-04-12T04:22:16.518Z,12.24
2018-04-12T04:22:42.656Z,12.2
2018-04-12T04:23:08.804Z,12.18
2018-04-12T04:23:34.941Z,12.2
2018-04-12T04:24:01.078Z,12.15
2018-04-12T04:24:27.219Z,12.22
2018-04-12T04:24:53.358Z,12.12
2018-04-12T04:25:19.502Z,12.17
2018-04-12T04:25:45.634Z,12.1
2018-04-12T04:26:11.771Z,12.12
2018-04-12T04:26:37.907Z,12.15
2018-04-12T04:27:04.050Z,12.1
2018-04-12T04:27:30.186Z,12.1
2018-04-12T04:27:56.347Z,12.17
2018-04-12T04:28:22.476Z,12.07
2018-04-12T04:28:48.612Z,12.15
2018-04-12T04:29:14.752Z,12.18
2018-04-12T04:29:40.893Z,12.1
2018-04-12T04:30:07.055Z,12.09
2018-04-12T04:30:33.192Z,12.15
2018-04-12T04:30:59.332Z,12.09
2018-04-12T04:31:25.496Z,12.09
2018-04-12T04:31:51.667Z,12.1
2018-04-12T04:32:17.782Z,12.18
2018-04-12T04:32:43.923Z,12.17
2018-04-12T04:33:10.064Z,12.09
2018-04-12T04:33:36.223Z,12.21
2018-04-12T04:34:02.365Z,12.2
2018-04-12T04:34:28.497Z,12.21
2018-04-12T04:34:54.634Z,12.17
2018-04-12T04:35:20.776Z,12.15
2018-04-12T04:35:46.918Z,12.07
2018-04-12T04:36:13.081Z,12.22
2018-04-12T04:36:39.216Z,12.09
2018-04-12T04:37:05.383Z,12.2
2018-04-12T04:37:31.515Z,12.1
2018-04-12T04:37:57.683Z,12.12
2018-04-12T04:38:23.842Z,12.15
2018-04-12T04:38:49.987Z,12.09
2018-04-12T04:39:16.130Z,12.13
2018-04-12T04:39:42.261Z,12.12
2018-04-12T04:40:08.429Z,12.1
2018-04-12T04:40:34.565Z,12.06
2018-04-12T04:41:00.735Z,12.06
2018-04-12T04:41:26.878Z,12.07
2018-04-12T04:41:53.014Z,12.1
2018-04-12T04:42:19.148Z,12.06
2018-04-12T04:42:45.313Z,12.12
2018-04-12T04:43:11.451Z,12.09
2018-04-12T04:43:37.592Z,12.21
2018-04-12T04:44:03.736Z,12.22
2018-04-12T04:44:29.879Z,12.13
2018-04-12T04:44:56.036Z,12.22
2018-04-12T04:45:22.179Z,12.24
2018-04-12T04:45:48.314Z,12.25
2018-04-12T04:46:14.459Z,12.24
2018-04-12T04:46:40.596Z,12.22
2018-04-12T04:47:06.767Z,12.13
2018-04-12T04:47:32.909Z,12.2
2018-04-12T04:47:59.034Z,12.06
2018-04-12T04:48:25.172Z,12.06
2018-04-12T04:48:51.311Z,12.06
2018-04-12T04:49:17.445Z,12.18
2018-04-12T04:49:43.583Z,12.21
2018-04-12T04:50:09.725Z,12.17
2018-04-12T04:50:35.863Z,12.17
2018-04-12T04:51:02.004Z,12.27
2018-04-12T04:51:28.162Z,12.32
2018-04-12T04:51:54.306Z,12.39
2018-04-12T04:52:20.446Z,12.36
2018-04-12T04:52:46.606Z,12.35
2018-04-12T04:53:12.743Z,12.4
2018-04-12T04:53:38.887Z,12.31
2018-04-12T04:54:05.020Z,12.39
2018-04-12T04:54:31.180Z,12.37
2018-04-12T04:54:57.371Z,12.4
2018-04-12T04:55:23.460Z,12.37
2018-04-12T04:55:49.605Z,12.42
2018-04-12T04:56:15.763Z,12.32
2018-04-12T04:56:41.923Z,12.46
2018-04-12T04:57:08.064Z,12.39
2018-04-12T04:57:34.208Z,12.49
2018-04-12T04:58:00.346Z,12.46
2018-04-12T04:58:26.480Z,12.37
2018-04-12T04:58:52.633Z,12.37
2018-04-12T04:59:18.799Z,12.28
2018-04-12T04:59:44.989Z,12.17
2018-04-12T05:00:11.155Z,12.27
2018-04-12T05:00:37.300Z,12.25
2018-04-12T05:01:03.462Z,12.22
2018-04-12T05:01:29.614Z,12.03
2018-04-12T05:01:55.792Z,12.1
2018-04-12T05:02:21.929Z,12.06
2018-04-12T05:02:48.064Z,12.09
2018-04-12T05:03:14.228Z,12.09
2018-04-12T05:03:40.374Z,12.12
2018-04-12T05:04:06.510Z,12.07
2018-04-12T05:04:32.644Z,12.1
2018-04-12T05:04:58.809Z,12.06
2018-04-12T05:05:24.952Z,12.07
2018-04-12T05:05:51.115Z,12.09
2018-04-12T05:06:17.264Z,12.13
2018-04-12T05:06:43.402Z,12.07
2018-04-12T05:07:09.542Z,12.12
2018-04-12T05:07:35.671Z,12.2
2018-04-12T05:08:01.814Z,12.1
2018-04-12T05:08:27.948Z,12.17
2018-04-12T05:08:54.086Z,12.09
2018-04-12T05:09:20.224Z,12.24
2018-04-12T05:09:46.365Z,12.15
2018-04-12T05:10:12.506Z,12.13
2018-04-12T05:10:38.641Z,12.06
2018-04-12T05:11:04.809Z,12.13
2018-04-12T05:11:30.954Z,12.09
2018-04-12T05:11:57.114Z,12.15
2018-04-12T05:12:23.263Z,12.15
2018-04-12T05:12:49.415Z,12.12
2018-04-12T05:13:15.549Z,12.04
2018-04-12T05:13:41.689Z,12.1
2018-04-12T05:14:07.860Z,12.1
2018-04-12T05:14:33.994Z,12.09
2018-04-12T05:15:00.142Z,12.06
2018-04-12T05:15:26.285Z,12.17
2018-04-12T05:15:52.474Z,12.21
2018-04-12T05:16:18.618Z,12.22
2018-04-12T05:16:44.754Z,12.24
2018-04-12T05:17:10.916Z,12.2
2018-04-12T05:17:37.056Z,12.21
2018-04-12T05:18:03.195Z,12.35
2018-04-12T05:18:29.340Z,12.42
2018-04-12T05:18:55.503Z,12.37
2018-04-12T05:19:21.644Z,12.39
2018-04-12T05:19:47.809Z,12.45
2018-04-12T05:20:13.964Z,12.35
2018-04-12T05:20:40.107Z,12.4
2018-04-12T05:21:06.300Z,12.39
2018-04-12T05:21:32.380Z,12.47
2018-04-12T05:21:58.515Z,12.45
2018-04-12T05:22:24.689Z,12.47
2018-04-12T05:22:50.824Z,12.47
2018-04-12T05:23:16.962Z,12.47
2018-04-12T05:23:43.098Z,12.45
2018-04-12T05:24:09.238Z,12.4
2018-04-12T05:24:35.382Z,12.45
2018-04-12T05:25:01.520Z,12.53
2018-04-12T05:25:27.696Z,12.5
2018-04-12T05:25:53.832Z,12.53
2018-04-12T05:26:19.977Z,12.5
2018-04-12T05:26:46.159Z,12.45
2018-04-12T05:27:12.347Z,12.47
2018-04-12T05:27:39.203Z,12.32
2018-04-12T05:28:05.381Z,12.32
2018-04-12T05:28:31.598Z,12.32
2018-04-12T05:28:57.732Z,12.35
2018-04-12T05:29:23.901Z,12.17
2018-04-12T05:29:50.051Z,12.17
2018-04-12T05:30:16.189Z,12.25
2018-04-12T05:30:42.327Z,12.13
2018-04-12T05:31:08.482Z,12.18
2018-04-12T05:31:34.624Z,12.22
2018-04-12T05:32:00.767Z,12.22
2018-04-12T05:32:26.911Z,12.24
2018-04-12T05:32:53.050Z,12.17
2018-04-12T05:33:19.236Z,12.18
2018-04-12T05:33:45.382Z,12.17
2018-04-12T05:34:11.521Z,12.28
2018-04-12T05:34:37.660Z,12.25
2018-04-12T05:35:03.828Z,12.15
2018-04-12T05:35:29.967Z,12.24
2018-04-12T05:35:56.133Z,12.28
2018-04-12T05:36:22.344Z,12.24
2018-04-12T05:36:48.483Z,12.28
2018-04-12T05:37:14.629Z,12.25
2018-04-12T05:37:40.767Z,12.22
2018-04-12T05:38:06.907Z,12.28
2018-04-12T05:38:33.039Z,12.37